sensor_id;sensor_type;location;lat;lon;timestamp;P1;durP1;ratioP1;P2;durP2;ratioP2
33579;SDS011;19909;43.644;-79.438;2024-01-30T00:01:07;2.53;;;1.23;;
33579;SDS011;19909;43.644;-79.438;2024-01-30T00:03:34;2.75;;;1.60;;
33579;SDS011;19909;43.644;-79.438;2024-01-30T00:06:00;3.83;;;2.20;;
33579;SDS011;19909;43.644;-79.438;2024-01-30T00:08:34;3.10;;;2.08;;
33579;SDS011;19909;43.644;-79.438;2024-01-30T00:11:01;1.58;;;1.35;;
33579;SDS011;19909;43.644;-79.438;2024-01-30T00:13:28;2.13;;;1.50;;
33579;SDS011;19909;43.644;-79.438;2024-01-30T00:15:55;1.63;;;1.40;;
33579;SDS011;19909;43.644;-79.438;2024-01-30T00:18:22;2.53;;;1.50;;
33579;SDS011;19909;43.644;-79.438;2024-01-30T00:20:51;1.70;;;1.25;;
33579;SDS011;19909;43.644;-79.438;2024-01-30T00:23:18;2.83;;;1.25;;
33579;SDS011;19909;43.644;-79.438;2024-01-30T00:25:48;2.33;;;1.73;;
33579;SDS011;19909;43.644;-79.438;2024-01-30T00:28:20;1.95;;;1.50;;
33579;SDS011;19909;43.644;-79.438;2024-01-30T00:30:49;2.63;;;1.55;;
33579;SDS011;19909;43.644;-79.438;2024-01-30T00:33:15;2.60;;;1.75;;
33579;SDS011;19909;43.644;-79.438;2024-01-30T00:35:43;1.67;;;1.30;;
33579;SDS011;19909;43.644;-79.438;2024-01-30T00:38:12;2.17;;;1.38;;
33579;SDS011;19909;43.644;-79.438;2024-01-30T00:40:45;2.47;;;1.50;;
33579;SDS011;19909;43.644;-79.438;2024-01-30T00:45:43;4.55;;;2.30;;
33579;SDS011;19909;43.644;-79.438;2024-01-30T00:48:10;7.28;;;4.03;;
33579;SDS011;19909;43.644;-79.438;2024-01-30T00:50:46;5.78;;;3.45;;
33579;SDS011;19909;43.644;-79.438;2024-01-30T00:53:28;7.63;;;4.28;;
33579;SDS011;19909;43.644;-79.438;2024-01-30T00:55:59;8.13;;;4.00;;
33579;SDS011;19909;43.644;-79.438;2024-01-30T01:01:48;5.70;;;3.92;;
33579;SDS011;19909;43.644;-79.438;2024-01-30T01:04:15;6.53;;;4.13;;
33579;SDS011;19909;43.644;-79.438;2024-01-30T01:06:43;7.00;;;3.90;;
33579;SDS011;19909;43.644;-79.438;2024-01-30T01:09:12;4.50;;;3.08;;
33579;SDS011;19909;43.644;-79.438;2024-01-30T01:11:41;4.15;;;3.13;;
33579;SDS011;19909;43.644;-79.438;2024-01-30T01:14:07;3.53;;;2.90;;
33579;SDS011;19909;43.644;-79.438;2024-01-30T01:16:36;4.28;;;2.83;;
33579;SDS011;19909;43.644;-79.438;2024-01-30T01:19:03;3.65;;;2.70;;
33579;SDS011;19909;43.644;-79.438;2024-01-30T01:21:30;4.80;;;2.40;;
33579;SDS011;19909;43.644;-79.438;2024-01-30T01:23:59;2.97;;;2.13;;
33579;SDS011;19909;43.644;-79.438;2024-01-30T01:26:26;3.40;;;2.40;;
33579;SDS011;19909;43.644;-79.438;2024-01-30T01:28:56;2.50;;;1.83;;
33579;SDS011;19909;43.644;-79.438;2024-01-30T01:31:25;3.45;;;2.47;;
33579;SDS011;19909;43.644;-79.438;2024-01-30T01:33:55;3.35;;;2.00;;
33579;SDS011;19909;43.644;-79.438;2024-01-30T01:36:23;2.83;;;2.22;;
33579;SDS011;19909;43.644;-79.438;2024-01-30T01:38:49;2.58;;;1.60;;
33579;SDS011;19909;43.644;-79.438;2024-01-30T01:41:20;2.85;;;1.77;;
33579;SDS011;19909;43.644;-79.438;2024-01-30T01:44:05;2.65;;;1.73;;
33579;SDS011;19909;43.644;-79.438;2024-01-30T01:46:32;4.45;;;1.88;;
33579;SDS011;19909;43.644;-79.438;2024-01-30T01:49:00;2.75;;;1.77;;
33579;SDS011;19909;43.644;-79.438;2024-01-30T01:51:31;2.78;;;1.75;;
33579;SDS011;19909;43.644;-79.438;2024-01-30T01:54:04;3.13;;;1.75;;
33579;SDS011;19909;43.644;-79.438;2024-01-30T01:56:32;2.03;;;1.40;;
33579;SDS011;19909;43.644;-79.438;2024-01-30T01:59:04;2.42;;;1.98;;
33579;SDS011;19909;43.644;-79.438;2024-01-30T02:01:33;3.38;;;2.30;;
33579;SDS011;19909;43.644;-79.438;2024-01-30T02:04:10;2.08;;;1.55;;
33579;SDS011;19909;43.644;-79.438;2024-01-30T02:06:43;4.07;;;1.90;;
33579;SDS011;19909;43.644;-79.438;2024-01-30T02:09:10;2.25;;;1.60;;
33579;SDS011;19909;43.644;-79.438;2024-01-30T02:11:36;2.40;;;1.77;;
33579;SDS011;19909;43.644;-79.438;2024-01-30T02:14:06;2.47;;;1.63;;
33579;SDS011;19909;43.644;-79.438;2024-01-30T02:16:33;2.22;;;1.50;;
33579;SDS011;19909;43.644;-79.438;2024-01-30T02:18:59;2.88;;;1.70;;
33579;SDS011;19909;43.644;-79.438;2024-01-30T02:21:26;2.97;;;1.90;;
33579;SDS011;19909;43.644;-79.438;2024-01-30T02:23:52;2.53;;;1.45;;
33579;SDS011;19909;43.644;-79.438;2024-01-30T02:26:20;2.10;;;1.45;;
33579;SDS011;19909;43.644;-79.438;2024-01-30T02:28:46;4.03;;;1.50;;
33579;SDS011;19909;43.644;-79.438;2024-01-30T02:31:13;2.08;;;1.50;;
33579;SDS011;19909;43.644;-79.438;2024-01-30T02:33:39;3.65;;;1.80;;
33579;SDS011;19909;43.644;-79.438;2024-01-30T02:36:05;4.50;;;1.85;;
33579;SDS011;19909;43.644;-79.438;2024-01-30T02:38:32;2.05;;;1.48;;
33579;SDS011;19909;43.644;-79.438;2024-01-30T02:41:00;2.10;;;1.40;;
33579;SDS011;19909;43.644;-79.438;2024-01-30T02:43:26;1.67;;;1.35;;
33579;SDS011;19909;43.644;-79.438;2024-01-30T02:45:53;1.40;;;1.10;;
33579;SDS011;19909;43.644;-79.438;2024-01-30T02:48:20;2.55;;;1.40;;
33579;SDS011;19909;43.644;-79.438;2024-01-30T02:50:46;1.35;;;1.10;;
33579;SDS011;19909;43.644;-79.438;2024-01-30T02:53:13;1.77;;;1.23;;
33579;SDS011;19909;43.644;-79.438;2024-01-30T02:55:39;1.85;;;1.20;;
33579;SDS011;19909;43.644;-79.438;2024-01-30T02:58:06;2.13;;;1.33;;
33579;SDS011;19909;43.644;-79.438;2024-01-30T03:00:32;1.80;;;1.30;;
33579;SDS011;19909;43.644;-79.438;2024-01-30T03:02:59;2.38;;;1.52;;
33579;SDS011;19909;43.644;-79.438;2024-01-30T03:05:38;1.88;;;1.67;;
33579;SDS011;19909;43.644;-79.438;2024-01-30T03:08:06;2.00;;;1.65;;
33579;SDS011;19909;43.644;-79.438;2024-01-30T03:10:33;2.40;;;1.80;;
33579;SDS011;19909;43.644;-79.438;2024-01-30T03:12:59;2.58;;;1.98;;
33579;SDS011;19909;43.644;-79.438;2024-01-30T03:15:25;3.00;;;1.98;;
33579;SDS011;19909;43.644;-79.438;2024-01-30T03:17:52;2.28;;;1.85;;
33579;SDS011;19909;43.644;-79.438;2024-01-30T03:20:19;1.95;;;1.50;;
33579;SDS011;19909;43.644;-79.438;2024-01-30T03:22:45;2.00;;;1.50;;
33579;SDS011;19909;43.644;-79.438;2024-01-30T03:25:11;1.65;;;1.23;;
33579;SDS011;19909;43.644;-79.438;2024-01-30T03:27:41;2.13;;;1.20;;
33579;SDS011;19909;43.644;-79.438;2024-01-30T03:30:08;2.15;;;1.63;;
33579;SDS011;19909;43.644;-79.438;2024-01-30T03:32:34;3.08;;;1.45;;
33579;SDS011;19909;43.644;-79.438;2024-01-30T03:35:01;2.97;;;1.42;;
33579;SDS011;19909;43.644;-79.438;2024-01-30T03:37:28;1.83;;;1.40;;
33579;SDS011;19909;43.644;-79.438;2024-01-30T03:39:54;1.48;;;1.15;;
33579;SDS011;19909;43.644;-79.438;2024-01-30T03:42:21;1.77;;;1.25;;
33579;SDS011;19909;43.644;-79.438;2024-01-30T03:44:48;1.67;;;1.20;;
33579;SDS011;19909;43.644;-79.438;2024-01-30T03:47:17;1.83;;;1.00;;
33579;SDS011;19909;43.644;-79.438;2024-01-30T03:49:43;1.50;;;0.82;;
33579;SDS011;19909;43.644;-79.438;2024-01-30T03:52:09;0.95;;;0.77;;
33579;SDS011;19909;43.644;-79.438;2024-01-30T03:54:40;1.10;;;0.80;;
33579;SDS011;19909;43.644;-79.438;2024-01-30T03:57:06;1.27;;;0.80;;
33579;SDS011;19909;43.644;-79.438;2024-01-30T03:59:32;1.00;;;0.68;;
33579;SDS011;19909;43.644;-79.438;2024-01-30T04:02:00;1.10;;;0.80;;
33579;SDS011;19909;43.644;-79.438;2024-01-30T04:04:29;2.00;;;0.95;;
33579;SDS011;19909;43.644;-79.438;2024-01-30T04:06:56;1.15;;;0.85;;
33579;SDS011;19909;43.644;-79.438;2024-01-30T04:09:25;2.58;;;0.98;;
33579;SDS011;19909;43.644;-79.438;2024-01-30T04:11:51;1.52;;;1.25;;
33579;SDS011;19909;43.644;-79.438;2024-01-30T04:14:17;1.30;;;0.80;;
33579;SDS011;19909;43.644;-79.438;2024-01-30T04:16:43;1.30;;;0.90;;
33579;SDS011;19909;43.644;-79.438;2024-01-30T04:19:10;1.20;;;1.00;;
33579;SDS011;19909;43.644;-79.438;2024-01-30T04:21:36;1.88;;;1.08;;
33579;SDS011;19909;43.644;-79.438;2024-01-30T04:24:02;1.48;;;0.95;;
33579;SDS011;19909;43.644;-79.438;2024-01-30T04:26:32;2.47;;;0.95;;
33579;SDS011;19909;43.644;-79.438;2024-01-30T04:28:58;1.13;;;0.88;;
33579;SDS011;19909;43.644;-79.438;2024-01-30T04:31:27;1.00;;;0.70;;
33579;SDS011;19909;43.644;-79.438;2024-01-30T04:33:54;1.95;;;0.90;;
33579;SDS011;19909;43.644;-79.438;2024-01-30T04:36:21;1.02;;;0.68;;
33579;SDS011;19909;43.644;-79.438;2024-01-30T04:38:47;1.35;;;0.90;;
33579;SDS011;19909;43.644;-79.438;2024-01-30T04:41:14;1.23;;;0.90;;
33579;SDS011;19909;43.644;-79.438;2024-01-30T04:43:40;1.02;;;0.85;;
33579;SDS011;19909;43.644;-79.438;2024-01-30T04:46:10;1.88;;;1.15;;
33579;SDS011;19909;43.644;-79.438;2024-01-30T04:48:39;0.93;;;0.70;;
33579;SDS011;19909;43.644;-79.438;2024-01-30T04:51:05;1.00;;;0.80;;
33579;SDS011;19909;43.644;-79.438;2024-01-30T04:53:31;2.10;;;0.93;;
33579;SDS011;19909;43.644;-79.438;2024-01-30T04:56:00;1.90;;;1.13;;
33579;SDS011;19909;43.644;-79.438;2024-01-30T04:58:26;1.95;;;0.98;;
33579;SDS011;19909;43.644;-79.438;2024-01-30T05:00:52;0.88;;;0.68;;
33579;SDS011;19909;43.644;-79.438;2024-01-30T05:03:19;1.40;;;0.80;;
33579;SDS011;19909;43.644;-79.438;2024-01-30T05:05:47;1.27;;;0.70;;
33579;SDS011;19909;43.644;-79.438;2024-01-30T05:08:14;1.00;;;0.70;;
33579;SDS011;19909;43.644;-79.438;2024-01-30T05:10:40;1.95;;;0.75;;
33579;SDS011;19909;43.644;-79.438;2024-01-30T05:13:07;1.55;;;0.90;;
33579;SDS011;19909;43.644;-79.438;2024-01-30T05:15:33;2.17;;;1.23;;
33579;SDS011;19909;43.644;-79.438;2024-01-30T05:18:00;1.95;;;1.50;;
33579;SDS011;19909;43.644;-79.438;2024-01-30T05:20:26;2.28;;;1.20;;
33579;SDS011;19909;43.644;-79.438;2024-01-30T05:22:54;2.08;;;1.45;;
33579;SDS011;19909;43.644;-79.438;2024-01-30T05:25:20;2.72;;;1.35;;
33579;SDS011;19909;43.644;-79.438;2024-01-30T05:27:46;2.58;;;1.50;;
33579;SDS011;19909;43.644;-79.438;2024-01-30T05:30:13;3.28;;;1.38;;
33579;SDS011;19909;43.644;-79.438;2024-01-30T05:32:39;2.35;;;1.60;;
33579;SDS011;19909;43.644;-79.438;2024-01-30T05:35:05;1.95;;;1.17;;
33579;SDS011;19909;43.644;-79.438;2024-01-30T05:37:33;1.92;;;1.17;;
33579;SDS011;19909;43.644;-79.438;2024-01-30T05:39:59;1.67;;;0.90;;
33579;SDS011;19909;43.644;-79.438;2024-01-30T05:42:26;1.40;;;0.85;;
33579;SDS011;19909;43.644;-79.438;2024-01-30T05:44:52;1.35;;;0.82;;
33579;SDS011;19909;43.644;-79.438;2024-01-30T05:47:19;1.30;;;0.70;;
33579;SDS011;19909;43.644;-79.438;2024-01-30T05:49:45;0.70;;;0.50;;
33579;SDS011;19909;43.644;-79.438;2024-01-30T05:52:11;0.57;;;0.40;;
33579;SDS011;19909;43.644;-79.438;2024-01-30T05:54:37;2.10;;;0.60;;
33579;SDS011;19909;43.644;-79.438;2024-01-30T05:57:03;0.55;;;0.40;;
33579;SDS011;19909;43.644;-79.438;2024-01-30T05:59:30;1.30;;;0.68;;
33579;SDS011;19909;43.644;-79.438;2024-01-30T06:01:56;0.85;;;0.50;;
33579;SDS011;19909;43.644;-79.438;2024-01-30T06:04:23;0.73;;;0.50;;
33579;SDS011;19909;43.644;-79.438;2024-01-30T06:06:50;0.75;;;0.52;;
33579;SDS011;19909;43.644;-79.438;2024-01-30T06:09:16;0.93;;;0.55;;
33579;SDS011;19909;43.644;-79.438;2024-01-30T06:11:42;1.55;;;0.50;;
33579;SDS011;19909;43.644;-79.438;2024-01-30T06:14:10;0.52;;;0.52;;
33579;SDS011;19909;43.644;-79.438;2024-01-30T06:16:36;1.27;;;0.50;;
33579;SDS011;19909;43.644;-79.438;2024-01-30T06:19:02;0.63;;;0.50;;
33579;SDS011;19909;43.644;-79.438;2024-01-30T06:21:29;0.80;;;0.40;;
33579;SDS011;19909;43.644;-79.438;2024-01-30T06:23:56;0.57;;;0.30;;
33579;SDS011;19909;43.644;-79.438;2024-01-30T06:26:23;0.30;;;0.22;;
33579;SDS011;19909;43.644;-79.438;2024-01-30T06:28:49;0.38;;;0.30;;
33579;SDS011;19909;43.644;-79.438;2024-01-30T06:31:16;0.35;;;0.30;;
33579;SDS011;19909;43.644;-79.438;2024-01-30T06:33:42;0.57;;;0.25;;
33579;SDS011;19909;43.644;-79.438;2024-01-30T06:36:09;0.50;;;0.35;;
33579;SDS011;19909;43.644;-79.438;2024-01-30T06:38:35;0.30;;;0.30;;
33579;SDS011;19909;43.644;-79.438;2024-01-30T06:41:02;0.85;;;0.30;;
33579;SDS011;19909;43.644;-79.438;2024-01-30T06:43:28;0.30;;;0.20;;
33579;SDS011;19909;43.644;-79.438;2024-01-30T06:45:54;0.20;;;0.20;;
33579;SDS011;19909;43.644;-79.438;2024-01-30T06:48:20;0.47;;;0.25;;
33579;SDS011;19909;43.644;-79.438;2024-01-30T06:50:46;0.30;;;0.20;;
33579;SDS011;19909;43.644;-79.438;2024-01-30T06:53:14;0.20;;;0.20;;
33579;SDS011;19909;43.644;-79.438;2024-01-30T06:55:40;0.57;;;0.30;;
33579;SDS011;19909;43.644;-79.438;2024-01-30T06:58:07;0.32;;;0.20;;
33579;SDS011;19909;43.644;-79.438;2024-01-30T07:03:01;0.30;;;0.30;;
33579;SDS011;19909;43.644;-79.438;2024-01-30T07:05:27;0.25;;;0.13;;
33579;SDS011;19909;43.644;-79.438;2024-01-30T07:07:54;0.20;;;0.20;;
33579;SDS011;19909;43.644;-79.438;2024-01-30T07:10:20;0.10;;;0.10;;
33579;SDS011;19909;43.644;-79.438;2024-01-30T07:12:47;0.20;;;0.17;;
33579;SDS011;19909;43.644;-79.438;2024-01-30T07:15:13;0.47;;;0.20;;
33579;SDS011;19909;43.644;-79.438;2024-01-30T07:17:46;0.20;;;0.20;;
33579;SDS011;19909;43.644;-79.438;2024-01-30T07:20:13;0.22;;;0.20;;
33579;SDS011;19909;43.644;-79.438;2024-01-30T07:22:40;0.28;;;0.20;;
33579;SDS011;19909;43.644;-79.438;2024-01-30T07:25:06;0.40;;;0.20;;
33579;SDS011;19909;43.644;-79.438;2024-01-30T07:27:35;0.30;;;0.20;;
33579;SDS011;19909;43.644;-79.438;2024-01-30T07:30:02;0.30;;;0.30;;
33579;SDS011;19909;43.644;-79.438;2024-01-30T07:32:28;0.63;;;0.30;;
33579;SDS011;19909;43.644;-79.438;2024-01-30T07:34:54;0.30;;;0.20;;
33579;SDS011;19909;43.644;-79.438;2024-01-30T07:37:20;0.20;;;0.10;;
33579;SDS011;19909;43.644;-79.438;2024-01-30T07:39:47;0.30;;;0.22;;
33579;SDS011;19909;43.644;-79.438;2024-01-30T07:42:13;0.52;;;0.30;;
33579;SDS011;19909;43.644;-79.438;2024-01-30T07:44:39;0.50;;;0.30;;
33579;SDS011;19909;43.644;-79.438;2024-01-30T07:47:05;0.40;;;0.40;;
33579;SDS011;19909;43.644;-79.438;2024-01-30T07:49:36;0.73;;;0.40;;
33579;SDS011;19909;43.644;-79.438;2024-01-30T07:52:05;0.30;;;0.28;;
33579;SDS011;19909;43.644;-79.438;2024-01-30T07:54:31;0.40;;;0.38;;
33579;SDS011;19909;43.644;-79.438;2024-01-30T07:57:00;0.47;;;0.30;;
33579;SDS011;19909;43.644;-79.438;2024-01-30T07:59:27;0.35;;;0.30;;
33579;SDS011;19909;43.644;-79.438;2024-01-30T08:01:53;0.57;;;0.40;;
33579;SDS011;19909;43.644;-79.438;2024-01-30T08:04:19;0.43;;;0.43;;
33579;SDS011;19909;43.644;-79.438;2024-01-30T08:06:46;0.40;;;0.38;;
33579;SDS011;19909;43.644;-79.438;2024-01-30T08:09:12;0.52;;;0.50;;
33579;SDS011;19909;43.644;-79.438;2024-01-30T08:11:40;0.50;;;0.40;;
33579;SDS011;19909;43.644;-79.438;2024-01-30T08:14:10;0.95;;;0.73;;
33579;SDS011;19909;43.644;-79.438;2024-01-30T08:16:38;0.63;;;0.40;;
33579;SDS011;19909;43.644;-79.438;2024-01-30T08:19:05;0.82;;;0.65;;
33579;SDS011;19909;43.644;-79.438;2024-01-30T08:21:33;1.20;;;0.55;;
33579;SDS011;19909;43.644;-79.438;2024-01-30T08:24:04;0.75;;;0.50;;
33579;SDS011;19909;43.644;-79.438;2024-01-30T08:26:31;0.68;;;0.47;;
33579;SDS011;19909;43.644;-79.438;2024-01-30T08:28:58;0.40;;;0.40;;
33579;SDS011;19909;43.644;-79.438;2024-01-30T08:31:25;0.45;;;0.40;;
33579;SDS011;19909;43.644;-79.438;2024-01-30T08:33:52;0.40;;;0.40;;
33579;SDS011;19909;43.644;-79.438;2024-01-30T08:36:18;1.05;;;0.60;;
33579;SDS011;19909;43.644;-79.438;2024-01-30T08:38:45;0.88;;;0.60;;
33579;SDS011;19909;43.644;-79.438;2024-01-30T08:41:11;0.70;;;0.70;;
33579;SDS011;19909;43.644;-79.438;2024-01-30T08:43:37;1.10;;;1.00;;
33579;SDS011;19909;43.644;-79.438;2024-01-30T08:46:04;0.80;;;0.80;;
33579;SDS011;19909;43.644;-79.438;2024-01-30T08:48:30;1.27;;;0.93;;
33579;SDS011;19909;43.644;-79.438;2024-01-30T08:50:56;1.38;;;0.90;;
33579;SDS011;19909;43.644;-79.438;2024-01-30T08:53:22;0.90;;;0.90;;
33579;SDS011;19909;43.644;-79.438;2024-01-30T08:55:48;1.40;;;1.02;;
33579;SDS011;19909;43.644;-79.438;2024-01-30T08:58:15;1.15;;;0.98;;
33579;SDS011;19909;43.644;-79.438;2024-01-30T09:00:43;0.88;;;0.88;;
33579;SDS011;19909;43.644;-79.438;2024-01-30T09:03:10;0.98;;;0.73;;
33579;SDS011;19909;43.644;-79.438;2024-01-30T09:05:36;1.40;;;0.90;;
33579;SDS011;19909;43.644;-79.438;2024-01-30T09:08:03;1.48;;;1.08;;
33579;SDS011;19909;43.644;-79.438;2024-01-30T09:10:29;1.95;;;1.10;;
33579;SDS011;19909;43.644;-79.438;2024-01-30T09:12:55;1.45;;;0.90;;
33579;SDS011;19909;43.644;-79.438;2024-01-30T09:15:21;1.38;;;0.77;;
33579;SDS011;19909;43.644;-79.438;2024-01-30T09:17:47;1.60;;;1.23;;
33579;SDS011;19909;43.644;-79.438;2024-01-30T09:20:14;2.03;;;1.23;;
33579;SDS011;19909;43.644;-79.438;2024-01-30T09:22:40;2.30;;;1.35;;
33579;SDS011;19909;43.644;-79.438;2024-01-30T09:25:06;3.25;;;1.73;;
33579;SDS011;19909;43.644;-79.438;2024-01-30T09:27:34;1.67;;;1.20;;
33579;SDS011;19909;43.644;-79.438;2024-01-30T09:30:01;1.85;;;1.33;;
33579;SDS011;19909;43.644;-79.438;2024-01-30T09:32:28;1.80;;;1.30;;
33579;SDS011;19909;43.644;-79.438;2024-01-30T09:34:54;2.15;;;1.67;;
33579;SDS011;19909;43.644;-79.438;2024-01-30T09:37:21;2.10;;;1.15;;
33579;SDS011;19909;43.644;-79.438;2024-01-30T09:39:47;1.40;;;1.10;;
33579;SDS011;19909;43.644;-79.438;2024-01-30T09:42:18;1.10;;;0.80;;
33579;SDS011;19909;43.644;-79.438;2024-01-30T09:44:58;1.15;;;0.82;;
33579;SDS011;19909;43.644;-79.438;2024-01-30T09:47:24;2.17;;;1.02;;
33579;SDS011;19909;43.644;-79.438;2024-01-30T09:49:51;0.85;;;0.70;;
33579;SDS011;19909;43.644;-79.438;2024-01-30T09:52:17;1.02;;;0.93;;
33579;SDS011;19909;43.644;-79.438;2024-01-30T09:54:44;0.85;;;0.70;;
33579;SDS011;19909;43.644;-79.438;2024-01-30T09:57:11;0.85;;;0.63;;
33579;SDS011;19909;43.644;-79.438;2024-01-30T09:59:38;1.17;;;0.90;;
33579;SDS011;19909;43.644;-79.438;2024-01-30T10:02:04;1.70;;;0.80;;
33579;SDS011;19909;43.644;-79.438;2024-01-30T10:04:32;1.05;;;0.93;;
33579;SDS011;19909;43.644;-79.438;2024-01-30T10:06:59;1.25;;;1.10;;
33579;SDS011;19909;43.644;-79.438;2024-01-30T10:09:27;1.13;;;1.02;;
33579;SDS011;19909;43.644;-79.438;2024-01-30T10:11:54;1.25;;;1.15;;
33579;SDS011;19909;43.644;-79.438;2024-01-30T10:14:20;1.35;;;1.20;;
33579;SDS011;19909;43.644;-79.438;2024-01-30T10:16:47;1.10;;;1.00;;
33579;SDS011;19909;43.644;-79.438;2024-01-30T10:19:13;1.50;;;1.40;;
33579;SDS011;19909;43.644;-79.438;2024-01-30T10:21:40;1.00;;;0.90;;
33579;SDS011;19909;43.644;-79.438;2024-01-30T10:24:06;1.10;;;1.00;;
33579;SDS011;19909;43.644;-79.438;2024-01-30T10:26:32;0.80;;;0.73;;
33579;SDS011;19909;43.644;-79.438;2024-01-30T10:28:59;1.02;;;0.90;;
33579;SDS011;19909;43.644;-79.438;2024-01-30T10:31:25;1.42;;;0.80;;
33579;SDS011;19909;43.644;-79.438;2024-01-30T10:33:52;1.10;;;0.80;;
33579;SDS011;19909;43.644;-79.438;2024-01-30T10:36:18;0.73;;;0.60;;
33579;SDS011;19909;43.644;-79.438;2024-01-30T10:38:46;0.80;;;0.68;;
33579;SDS011;19909;43.644;-79.438;2024-01-30T10:41:16;0.70;;;0.70;;
33579;SDS011;19909;43.644;-79.438;2024-01-30T10:43:54;0.98;;;0.88;;
33579;SDS011;19909;43.644;-79.438;2024-01-30T10:46:30;0.85;;;0.85;;
33579;SDS011;19909;43.644;-79.438;2024-01-30T10:48:59;0.93;;;0.80;;
33579;SDS011;19909;43.644;-79.438;2024-01-30T10:51:27;1.13;;;0.88;;
33579;SDS011;19909;43.644;-79.438;2024-01-30T10:53:55;1.02;;;0.93;;
33579;SDS011;19909;43.644;-79.438;2024-01-30T10:56:22;1.30;;;1.10;;
33579;SDS011;19909;43.644;-79.438;2024-01-30T10:58:50;1.10;;;0.80;;
33579;SDS011;19909;43.644;-79.438;2024-01-30T11:01:21;1.00;;;0.60;;
33579;SDS011;19909;43.644;-79.438;2024-01-30T11:03:52;1.40;;;0.73;;
33579;SDS011;19909;43.644;-79.438;2024-01-30T11:06:22;1.10;;;0.70;;
33579;SDS011;19909;43.644;-79.438;2024-01-30T11:09:02;0.80;;;0.60;;
33579;SDS011;19909;43.644;-79.438;2024-01-30T11:11:47;0.70;;;0.57;;
33579;SDS011;19909;43.644;-79.438;2024-01-30T11:14:24;0.98;;;0.80;;
33579;SDS011;19909;43.644;-79.438;2024-01-30T11:16:51;0.75;;;0.52;;
33579;SDS011;19909;43.644;-79.438;2024-01-30T11:19:24;0.60;;;0.60;;
33579;SDS011;19909;43.644;-79.438;2024-01-30T11:21:57;0.60;;;0.60;;
33579;SDS011;19909;43.644;-79.438;2024-01-30T11:24:25;0.50;;;0.50;;
33579;SDS011;19909;43.644;-79.438;2024-01-30T11:26:56;0.50;;;0.43;;
33579;SDS011;19909;43.644;-79.438;2024-01-30T11:29:29;0.80;;;0.60;;
33579;SDS011;19909;43.644;-79.438;2024-01-30T11:31:56;0.52;;;0.52;;
33579;SDS011;19909;43.644;-79.438;2024-01-30T11:34:23;0.50;;;0.50;;
33579;SDS011;19909;43.644;-79.438;2024-01-30T11:37:02;0.70;;;0.70;;
33579;SDS011;19909;43.644;-79.438;2024-01-30T11:39:35;1.00;;;0.90;;
33579;SDS011;19909;43.644;-79.438;2024-01-30T11:42:03;0.80;;;0.80;;
33579;SDS011;19909;43.644;-79.438;2024-01-30T11:44:34;0.65;;;0.65;;
33579;SDS011;19909;43.644;-79.438;2024-01-30T11:47:00;0.60;;;0.50;;
33579;SDS011;19909;43.644;-79.438;2024-01-30T11:49:28;0.60;;;0.50;;
33579;SDS011;19909;43.644;-79.438;2024-01-30T11:51:55;0.70;;;0.60;;
33579;SDS011;19909;43.644;-79.438;2024-01-30T11:54:22;0.50;;;0.50;;
33579;SDS011;19909;43.644;-79.438;2024-01-30T11:56:48;0.60;;;0.50;;
33579;SDS011;19909;43.644;-79.438;2024-01-30T11:59:14;0.40;;;0.40;;
33579;SDS011;19909;43.644;-79.438;2024-01-30T12:01:42;0.30;;;0.30;;
33579;SDS011;19909;43.644;-79.438;2024-01-30T12:04:09;0.50;;;0.40;;
33579;SDS011;19909;43.644;-79.438;2024-01-30T12:06:35;1.05;;;0.60;;
33579;SDS011;19909;43.644;-79.438;2024-01-30T12:09:02;0.93;;;0.50;;
33579;SDS011;19909;43.644;-79.438;2024-01-30T12:11:29;0.40;;;0.40;;
33579;SDS011;19909;43.644;-79.438;2024-01-30T12:13:56;0.52;;;0.40;;
33579;SDS011;19909;43.644;-79.438;2024-01-30T12:16:23;0.52;;;0.40;;
33579;SDS011;19909;43.644;-79.438;2024-01-30T12:18:58;0.40;;;0.40;;
33579;SDS011;19909;43.644;-79.438;2024-01-30T12:21:26;0.88;;;0.60;;
33579;SDS011;19909;43.644;-79.438;2024-01-30T12:23:53;0.70;;;0.60;;
33579;SDS011;19909;43.644;-79.438;2024-01-30T12:26:19;0.50;;;0.50;;
33579;SDS011;19909;43.644;-79.438;2024-01-30T12:28:49;0.70;;;0.70;;
33579;SDS011;19909;43.644;-79.438;2024-01-30T12:31:25;0.65;;;0.50;;
33579;SDS011;19909;43.644;-79.438;2024-01-30T12:33:54;0.43;;;0.22;;
33579;SDS011;19909;43.644;-79.438;2024-01-30T12:36:23;0.85;;;0.50;;
33579;SDS011;19909;43.644;-79.438;2024-01-30T12:38:50;2.00;;;0.50;;
33579;SDS011;19909;43.644;-79.438;2024-01-30T12:41:19;0.70;;;0.38;;
33579;SDS011;19909;43.644;-79.438;2024-01-30T12:43:46;0.93;;;0.50;;
33579;SDS011;19909;43.644;-79.438;2024-01-30T12:46:16;0.43;;;0.40;;
33579;SDS011;19909;43.644;-79.438;2024-01-30T12:48:43;0.50;;;0.40;;
33579;SDS011;19909;43.644;-79.438;2024-01-30T12:51:11;0.55;;;0.43;;
33579;SDS011;19909;43.644;-79.438;2024-01-30T12:53:37;0.50;;;0.50;;
33579;SDS011;19909;43.644;-79.438;2024-01-30T12:56:05;0.68;;;0.60;;
33579;SDS011;19909;43.644;-79.438;2024-01-30T12:58:31;0.55;;;0.52;;
33579;SDS011;19909;43.644;-79.438;2024-01-30T13:00:57;0.88;;;0.70;;
33579;SDS011;19909;43.644;-79.438;2024-01-30T13:03:24;0.50;;;0.40;;
33579;SDS011;19909;43.644;-79.438;2024-01-30T13:05:50;0.70;;;0.70;;
33579;SDS011;19909;43.644;-79.438;2024-01-30T13:08:16;0.70;;;0.70;;
33579;SDS011;19909;43.644;-79.438;2024-01-30T13:10:42;0.60;;;0.60;;
33579;SDS011;19909;43.644;-79.438;2024-01-30T13:13:09;0.70;;;0.50;;
33579;SDS011;19909;43.644;-79.438;2024-01-30T13:15:35;0.60;;;0.60;;
33579;SDS011;19909;43.644;-79.438;2024-01-30T13:18:01;0.82;;;0.50;;
33579;SDS011;19909;43.644;-79.438;2024-01-30T13:20:28;0.77;;;0.52;;
33579;SDS011;19909;43.644;-79.438;2024-01-30T13:22:55;0.63;;;0.63;;
33579;SDS011;19909;43.644;-79.438;2024-01-30T13:25:21;0.43;;;0.40;;
33579;SDS011;19909;43.644;-79.438;2024-01-30T13:27:47;0.40;;;0.40;;
33579;SDS011;19909;43.644;-79.438;2024-01-30T13:30:13;0.57;;;0.57;;
33579;SDS011;19909;43.644;-79.438;2024-01-30T13:32:40;0.73;;;0.60;;
33579;SDS011;19909;43.644;-79.438;2024-01-30T13:35:09;0.60;;;0.60;;
33579;SDS011;19909;43.644;-79.438;2024-01-30T13:37:35;0.60;;;0.57;;
33579;SDS011;19909;43.644;-79.438;2024-01-30T13:40:03;0.80;;;0.70;;
33579;SDS011;19909;43.644;-79.438;2024-01-30T13:42:34;0.93;;;0.88;;
33579;SDS011;19909;43.644;-79.438;2024-01-30T13:45:01;1.00;;;0.77;;
33579;SDS011;19909;43.644;-79.438;2024-01-30T13:47:27;0.80;;;0.80;;
33579;SDS011;19909;43.644;-79.438;2024-01-30T13:49:54;0.80;;;0.70;;
33579;SDS011;19909;43.644;-79.438;2024-01-30T13:52:20;0.65;;;0.65;;
33579;SDS011;19909;43.644;-79.438;2024-01-30T13:54:48;0.98;;;0.88;;
33579;SDS011;19909;43.644;-79.438;2024-01-30T13:57:16;0.68;;;0.68;;
33579;SDS011;19909;43.644;-79.438;2024-01-30T13:59:43;1.10;;;0.63;;
33579;SDS011;19909;43.644;-79.438;2024-01-30T14:02:09;1.08;;;0.70;;
33579;SDS011;19909;43.644;-79.438;2024-01-30T14:04:36;1.17;;;0.60;;
33579;SDS011;19909;43.644;-79.438;2024-01-30T14:07:03;0.60;;;0.40;;
33579;SDS011;19909;43.644;-79.438;2024-01-30T14:09:31;0.98;;;0.88;;
33579;SDS011;19909;43.644;-79.438;2024-01-30T14:12:00;1.60;;;0.73;;
33579;SDS011;19909;43.644;-79.438;2024-01-30T14:14:26;0.50;;;0.50;;
33579;SDS011;19909;43.644;-79.438;2024-01-30T14:16:52;0.80;;;0.80;;
33579;SDS011;19909;43.644;-79.438;2024-01-30T14:19:18;1.33;;;0.70;;
33579;SDS011;19909;43.644;-79.438;2024-01-30T14:21:44;1.17;;;0.80;;
33579;SDS011;19909;43.644;-79.438;2024-01-30T14:24:11;0.90;;;0.70;;
33579;SDS011;19909;43.644;-79.438;2024-01-30T14:26:37;1.23;;;0.60;;
33579;SDS011;19909;43.644;-79.438;2024-01-30T14:29:04;1.20;;;0.65;;
33579;SDS011;19909;43.644;-79.438;2024-01-30T14:31:30;0.47;;;0.45;;